sensor_id;sensor_type;location;lat;lon;timestamp;P1;durP1;ratioP1;P2;durP2;ratioP2
62951;SDS011;52163;52.212;-1.002;2023-02-15T00:00:14;32.40;;;19.40;;
62951;SDS011;52163;52.212;-1.002;2023-02-15T00:02:39;33.60;;;19.40;;
62951;SDS011;52163;52.212;-1.002;2023-02-15T00:05:05;38.10;;;20.10;;
62951;SDS011;52163;52.212;-1.002;2023-02-15T00:07:31;44.60;;;21.90;;
62951;SDS011;52163;52.212;-1.002;2023-02-15T00:09:57;39.80;;;21.40;;
62951;SDS011;52163;52.212;-1.002;2023-02-15T00:12:22;39.30;;;24.40;;
62951;SDS011;52163;52.212;-1.002;2023-02-15T00:14:48;29.90;;;19.20;;
62951;SDS011;52163;52.212;-1.002;2023-02-15T00:17:13;30.90;;;19.10;;
62951;SDS011;52163;52.212;-1.002;2023-02-15T00:19:39;29.30;;;18.50;;
62951;SDS011;52163;52.212;-1.002;2023-02-15T00:22:05;29.40;;;19.30;;
62951;SDS011;52163;52.212;-1.002;2023-02-15T00:24:31;24.90;;;16.70;;
62951;SDS011;52163;52.212;-1.002;2023-02-15T00:26:56;25.70;;;15.80;;
62951;SDS011;52163;52.212;-1.002;2023-02-15T00:29:22;24.30;;;16.50;;
62951;SDS011;52163;52.212;-1.002;2023-02-15T00:31:48;29.30;;;17.10;;
62951;SDS011;52163;52.212;-1.002;2023-02-15T00:34:15;33.10;;;19.30;;
62951;SDS011;52163;52.212;-1.002;2023-02-15T00:36:42;33.30;;;19.40;;
62951;SDS011;52163;52.212;-1.002;2023-02-15T00:39:09;29.80;;;19.50;;
62951;SDS011;52163;52.212;-1.002;2023-02-15T00:41:34;28.40;;;16.40;;
62951;SDS011;52163;52.212;-1.002;2023-02-15T00:44:00;25.80;;;16.30;;
62951;SDS011;52163;52.212;-1.002;2023-02-15T00:46:26;26.10;;;17.20;;
62951;SDS011;52163;52.212;-1.002;2023-02-15T00:48:52;26.10;;;16.40;;
62951;SDS011;52163;52.212;-1.002;2023-02-15T00:51:18;27.20;;;17.80;;
62951;SDS011;52163;52.212;-1.002;2023-02-15T00:53:44;28.40;;;18.70;;
62951;SDS011;52163;52.212;-1.002;2023-02-15T00:56:10;29.60;;;17.30;;
62951;SDS011;52163;52.212;-1.002;2023-02-15T00:58:35;30.40;;;17.70;;
62951;SDS011;52163;52.212;-1.002;2023-02-15T01:01:05;37.60;;;21.50;;
62951;SDS011;52163;52.212;-1.002;2023-02-15T01:03:35;35.10;;;21.70;;
62951;SDS011;52163;52.212;-1.002;2023-02-15T01:06:01;31.60;;;20.50;;
62951;SDS011;52163;52.212;-1.002;2023-02-15T01:08:28;24.40;;;14.90;;
62951;SDS011;52163;52.212;-1.002;2023-02-15T01:10:53;21.60;;;15.00;;
62951;SDS011;52163;52.212;-1.002;2023-02-15T01:13:19;23.30;;;15.10;;
62951;SDS011;52163;52.212;-1.002;2023-02-15T01:15:45;23.20;;;15.20;;
62951;SDS011;52163;52.212;-1.002;2023-02-15T01:18:11;24.00;;;15.90;;
62951;SDS011;52163;52.212;-1.002;2023-02-15T01:20:37;23.90;;;15.10;;
62951;SDS011;52163;52.212;-1.002;2023-02-15T01:23:06;22.70;;;14.50;;
62951;SDS011;52163;52.212;-1.002;2023-02-15T01:25:33;27.70;;;16.60;;
62951;SDS011;52163;52.212;-1.002;2023-02-15T01:27:59;35.50;;;20.20;;
62951;SDS011;52163;52.212;-1.002;2023-02-15T01:30:25;34.70;;;19.20;;
62951;SDS011;52163;52.212;-1.002;2023-02-15T01:32:51;27.90;;;16.80;;
62951;SDS011;52163;52.212;-1.002;2023-02-15T01:35:16;25.40;;;17.10;;
62951;SDS011;52163;52.212;-1.002;2023-02-15T01:37:42;24.60;;;15.70;;
62951;SDS011;52163;52.212;-1.002;2023-02-15T01:40:08;26.20;;;16.40;;
62951;SDS011;52163;52.212;-1.002;2023-02-15T01:42:38;25.60;;;17.10;;
62951;SDS011;52163;52.212;-1.002;2023-02-15T01:45:05;34.40;;;18.50;;
62951;SDS011;52163;52.212;-1.002;2023-02-15T01:47:45;36.00;;;18.90;;
62951;SDS011;52163;52.212;-1.002;2023-02-15T01:53:08;36.30;;;17.60;;
62951;SDS011;52163;52.212;-1.002;2023-02-15T01:55:49;41.00;;;20.60;;
62951;SDS011;52163;52.212;-1.002;2023-02-15T01:58:19;37.70;;;19.80;;
62951;SDS011;52163;52.212;-1.002;2023-02-15T02:00:46;31.70;;;19.20;;
62951;SDS011;52163;52.212;-1.002;2023-02-15T02:03:12;29.00;;;18.80;;
62951;SDS011;52163;52.212;-1.002;2023-02-15T02:05:38;33.10;;;19.10;;
62951;SDS011;52163;52.212;-1.002;2023-02-15T02:08:05;33.20;;;19.20;;
62951;SDS011;52163;52.212;-1.002;2023-02-15T02:10:34;32.20;;;16.60;;
62951;SDS011;52163;52.212;-1.002;2023-02-15T02:13:02;34.90;;;18.50;;
62951;SDS011;52163;52.212;-1.002;2023-02-15T02:18:16;26.90;;;16.20;;
62951;SDS011;52163;52.212;-1.002;2023-02-15T02:35:10;44.00;;;21.60;;
62951;SDS011;52163;52.212;-1.002;2023-02-15T02:40:44;35.70;;;19.80;;
62951;SDS011;52163;52.212;-1.002;2023-02-15T02:43:22;38.50;;;20.00;;
62951;SDS011;52163;52.212;-1.002;2023-02-15T02:46:36;49.00;;;23.60;;
62951;SDS011;52163;52.212;-1.002;2023-02-15T02:49:04;41.90;;;22.50;;
62951;SDS011;52163;52.212;-1.002;2023-02-15T02:51:30;32.30;;;19.20;;
62951;SDS011;52163;52.212;-1.002;2023-02-15T02:53:56;29.30;;;19.20;;
62951;SDS011;52163;52.212;-1.002;2023-02-15T02:56:30;34.50;;;21.00;;
62951;SDS011;52163;52.212;-1.002;2023-02-15T02:59:12;25.80;;;17.40;;
62951;SDS011;52163;52.212;-1.002;2023-02-15T03:01:48;31.40;;;17.40;;
62951;SDS011;52163;52.212;-1.002;2023-02-15T03:04:24;33.00;;;18.60;;
62951;SDS011;52163;52.212;-1.002;2023-02-15T03:07:00;28.90;;;17.10;;
62951;SDS011;52163;52.212;-1.002;2023-02-15T03:09:31;37.10;;;19.20;;
62951;SDS011;52163;52.212;-1.002;2023-02-15T03:12:11;46.50;;;22.70;;
62951;SDS011;52163;52.212;-1.002;2023-02-15T03:14:40;37.80;;;20.80;;
62951;SDS011;52163;52.212;-1.002;2023-02-15T03:17:09;36.30;;;21.40;;
62951;SDS011;52163;52.212;-1.002;2023-02-15T03:19:37;29.50;;;17.70;;
62951;SDS011;52163;52.212;-1.002;2023-02-15T03:22:14;26.70;;;17.00;;
62951;SDS011;52163;52.212;-1.002;2023-02-15T03:24:51;26.20;;;17.50;;
62951;SDS011;52163;52.212;-1.002;2023-02-15T03:27:20;28.70;;;17.50;;
62951;SDS011;52163;52.212;-1.002;2023-02-15T03:29:51;30.50;;;17.30;;
62951;SDS011;52163;52.212;-1.002;2023-02-15T03:32:20;30.60;;;18.80;;
62951;SDS011;52163;52.212;-1.002;2023-02-15T03:34:48;33.90;;;20.30;;
62951;SDS011;52163;52.212;-1.002;2023-02-15T03:37:15;33.00;;;20.50;;
62951;SDS011;52163;52.212;-1.002;2023-02-15T03:39:59;26.80;;;17.90;;
62951;SDS011;52163;52.212;-1.002;2023-02-15T03:45:24;28.00;;;16.30;;
62951;SDS011;52163;52.212;-1.002;2023-02-15T03:47:53;25.20;;;16.80;;
62951;SDS011;52163;52.212;-1.002;2023-02-15T03:50:31;31.00;;;17.80;;
62951;SDS011;52163;52.212;-1.002;2023-02-15T03:53:19;29.00;;;17.40;;
62951;SDS011;52163;52.212;-1.002;2023-02-15T03:55:48;28.80;;;17.60;;
62951;SDS011;52163;52.212;-1.002;2023-02-15T03:58:17;30.80;;;18.00;;
62951;SDS011;52163;52.212;-1.002;2023-02-15T04:01:09;40.80;;;19.90;;
62951;SDS011;52163;52.212;-1.002;2023-02-15T04:04:03;42.00;;;23.40;;
62951;SDS011;52163;52.212;-1.002;2023-02-15T04:06:40;29.30;;;17.20;;
62951;SDS011;52163;52.212;-1.002;2023-02-15T04:09:06;28.80;;;17.00;;
62951;SDS011;52163;52.212;-1.002;2023-02-15T04:11:50;26.80;;;16.30;;
62951;SDS011;52163;52.212;-1.002;2023-02-15T04:14:15;27.90;;;17.00;;
62951;SDS011;52163;52.212;-1.002;2023-02-15T04:16:59;26.40;;;16.40;;
62951;SDS011;52163;52.212;-1.002;2023-02-15T04:19:24;25.10;;;16.10;;
62951;SDS011;52163;52.212;-1.002;2023-02-15T04:22:08;20.10;;;13.40;;
62951;SDS011;52163;52.212;-1.002;2023-02-15T04:24:52;22.50;;;15.40;;
62951;SDS011;52163;52.212;-1.002;2023-02-15T04:27:37;29.50;;;16.20;;
62951;SDS011;52163;52.212;-1.002;2023-02-15T04:30:04;41.00;;;21.50;;
62951;SDS011;52163;52.212;-1.002;2023-02-15T04:32:30;43.90;;;23.10;;
62951;SDS011;52163;52.212;-1.002;2023-02-15T04:34:56;33.90;;;21.50;;
62951;SDS011;52163;52.212;-1.002;2023-02-15T04:37:21;27.50;;;17.70;;
62951;SDS011;52163;52.212;-1.002;2023-02-15T04:39:46;29.30;;;18.10;;
62951;SDS011;52163;52.212;-1.002;2023-02-15T04:42:12;27.60;;;17.90;;
62951;SDS011;52163;52.212;-1.002;2023-02-15T04:44:37;29.70;;;18.80;;
62951;SDS011;52163;52.212;-1.002;2023-02-15T04:47:03;28.00;;;18.30;;
62951;SDS011;52163;52.212;-1.002;2023-02-15T04:49:28;31.60;;;19.20;;
62951;SDS011;52163;52.212;-1.002;2023-02-15T04:51:54;37.60;;;21.20;;
62951;SDS011;52163;52.212;-1.002;2023-02-15T04:54:19;47.00;;;24.80;;
62951;SDS011;52163;52.212;-1.002;2023-02-15T04:56:44;53.50;;;29.00;;
62951;SDS011;52163;52.212;-1.002;2023-02-15T04:59:10;49.00;;;27.50;;
62951;SDS011;52163;52.212;-1.002;2023-02-15T05:01:36;35.80;;;20.40;;
62951;SDS011;52163;52.212;-1.002;2023-02-15T05:04:01;29.60;;;19.10;;
62951;SDS011;52163;52.212;-1.002;2023-02-15T05:06:27;26.50;;;17.90;;
62951;SDS011;52163;52.212;-1.002;2023-02-15T05:08:53;30.50;;;19.10;;
62951;SDS011;52163;52.212;-1.002;2023-02-15T05:11:19;29.10;;;18.10;;
62951;SDS011;52163;52.212;-1.002;2023-02-15T05:13:44;30.80;;;18.00;;
62951;SDS011;52163;52.212;-1.002;2023-02-15T05:16:10;28.80;;;18.00;;
62951;SDS011;52163;52.212;-1.002;2023-02-15T05:18:35;31.10;;;18.70;;
62951;SDS011;52163;52.212;-1.002;2023-02-15T05:21:00;34.00;;;19.50;;
62951;SDS011;52163;52.212;-1.002;2023-02-15T05:23:26;50.20;;;23.30;;
62951;SDS011;52163;52.212;-1.002;2023-02-15T05:25:51;42.90;;;24.20;;
62951;SDS011;52163;52.212;-1.002;2023-02-15T05:28:36;37.00;;;20.90;;
62951;SDS011;52163;52.212;-1.002;2023-02-15T05:33:32;33.20;;;20.50;;
62951;SDS011;52163;52.212;-1.002;2023-02-15T05:35:58;34.10;;;20.90;;
62951;SDS011;52163;52.212;-1.002;2023-02-15T05:38:27;34.50;;;20.30;;
62951;SDS011;52163;52.212;-1.002;2023-02-15T05:40:52;32.80;;;20.60;;
62951;SDS011;52163;52.212;-1.002;2023-02-15T05:43:18;33.70;;;20.50;;
62951;SDS011;52163;52.212;-1.002;2023-02-15T05:45:48;40.80;;;23.30;;
62951;SDS011;52163;52.212;-1.002;2023-02-15T05:48:15;53.70;;;27.50;;
62951;SDS011;52163;52.212;-1.002;2023-02-15T05:50:41;49.40;;;27.20;;
62951;SDS011;52163;52.212;-1.002;2023-02-15T05:53:06;49.70;;;26.40;;
62951;SDS011;52163;52.212;-1.002;2023-02-15T05:55:32;35.80;;;20.80;;
62951;SDS011;52163;52.212;-1.002;2023-02-15T05:57:57;39.40;;;22.80;;
62951;SDS011;52163;52.212;-1.002;2023-02-15T06:00:23;41.80;;;22.50;;
62951;SDS011;52163;52.212;-1.002;2023-02-15T06:02:48;45.30;;;23.50;;
62951;SDS011;52163;52.212;-1.002;2023-02-15T06:05:14;40.50;;;23.90;;
62951;SDS011;52163;52.212;-1.002;2023-02-15T06:07:42;51.80;;;27.60;;
62951;SDS011;52163;52.212;-1.002;2023-02-15T06:10:08;68.20;;;32.20;;
62951;SDS011;52163;52.212;-1.002;2023-02-15T06:12:34;67.30;;;31.40;;
62951;SDS011;52163;52.212;-1.002;2023-02-15T06:14:59;48.00;;;27.10;;
62951;SDS011;52163;52.212;-1.002;2023-02-15T06:17:24;38.60;;;21.90;;
62951;SDS011;52163;52.212;-1.002;2023-02-15T06:19:50;32.70;;;21.10;;
62951;SDS011;52163;52.212;-1.002;2023-02-15T06:22:15;33.50;;;22.10;;
62951;SDS011;52163;52.212;-1.002;2023-02-15T06:24:41;39.10;;;21.30;;
62951;SDS011;52163;52.212;-1.002;2023-02-15T06:27:08;35.90;;;21.90;;
62951;SDS011;52163;52.212;-1.002;2023-02-15T06:29:34;38.40;;;21.80;;
62951;SDS011;52163;52.212;-1.002;2023-02-15T06:32:00;38.10;;;20.40;;
62951;SDS011;52163;52.212;-1.002;2023-02-15T06:34:25;32.80;;;20.00;;
62951;SDS011;52163;52.212;-1.002;2023-02-15T06:36:51;39.50;;;21.80;;
62951;SDS011;52163;52.212;-1.002;2023-02-15T06:39:16;46.00;;;25.50;;
62951;SDS011;52163;52.212;-1.002;2023-02-15T06:41:42;51.60;;;24.90;;
62951;SDS011;52163;52.212;-1.002;2023-02-15T06:44:07;38.10;;;22.50;;
62951;SDS011;52163;52.212;-1.002;2023-02-15T06:46:32;33.10;;;21.00;;
62951;SDS011;52163;52.212;-1.002;2023-02-15T06:48:58;36.60;;;21.90;;
62951;SDS011;52163;52.212;-1.002;2023-02-15T06:51:23;39.00;;;23.20;;
62951;SDS011;52163;52.212;-1.002;2023-02-15T06:53:49;39.90;;;24.00;;
62951;SDS011;52163;52.212;-1.002;2023-02-15T06:56:14;52.90;;;26.40;;
62951;SDS011;52163;52.212;-1.002;2023-02-15T06:58:40;65.10;;;30.70;;
62951;SDS011;52163;52.212;-1.002;2023-02-15T07:01:06;89.30;;;38.40;;
62951;SDS011;52163;52.212;-1.002;2023-02-15T07:03:32;110.00;;;41.20;;
62951;SDS011;52163;52.212;-1.002;2023-02-15T07:05:59;121.10;;;46.90;;
62951;SDS011;52163;52.212;-1.002;2023-02-15T07:08:26;112.00;;;46.70;;
62951;SDS011;52163;52.212;-1.002;2023-02-15T07:10:53;86.10;;;42.70;;
62951;SDS011;52163;52.212;-1.002;2023-02-15T07:13:40;58.80;;;32.60;;
62951;SDS011;52163;52.212;-1.002;2023-02-15T07:16:08;52.90;;;29.90;;
62951;SDS011;52163;52.212;-1.002;2023-02-15T07:18:34;52.70;;;28.50;;
62951;SDS011;52163;52.212;-1.002;2023-02-15T07:21:00;69.10;;;32.40;;
62951;SDS011;52163;52.212;-1.002;2023-02-15T07:23:26;99.40;;;42.00;;
62951;SDS011;52163;52.212;-1.002;2023-02-15T07:25:59;110.00;;;44.40;;
62951;SDS011;52163;52.212;-1.002;2023-02-15T07:28:25;87.50;;;44.10;;
62951;SDS011;52163;52.212;-1.002;2023-02-15T07:30:50;51.20;;;31.70;;
62951;SDS011;52163;52.212;-1.002;2023-02-15T07:33:16;56.80;;;30.40;;
62951;SDS011;52163;52.212;-1.002;2023-02-15T07:35:54;57.80;;;30.00;;
62951;SDS011;52163;52.212;-1.002;2023-02-15T07:38:25;52.80;;;27.80;;
62951;SDS011;52163;52.212;-1.002;2023-02-15T07:40:51;62.30;;;30.60;;
62951;SDS011;52163;52.212;-1.002;2023-02-15T07:43:22;83.60;;;37.50;;
62951;SDS011;52163;52.212;-1.002;2023-02-15T07:45:47;88.60;;;40.00;;
62951;SDS011;52163;52.212;-1.002;2023-02-15T07:48:13;72.40;;;36.50;;
62951;SDS011;52163;52.212;-1.002;2023-02-15T07:50:38;56.00;;;30.70;;
62951;SDS011;52163;52.212;-1.002;2023-02-15T07:53:04;56.10;;;30.00;;
62951;SDS011;52163;52.212;-1.002;2023-02-15T07:55:29;48.70;;;28.70;;
62951;SDS011;52163;52.212;-1.002;2023-02-15T07:57:55;53.90;;;31.10;;
62951;SDS011;52163;52.212;-1.002;2023-02-15T08:00:20;62.60;;;31.50;;
62951;SDS011;52163;52.212;-1.002;2023-02-15T08:02:51;87.80;;;39.90;;
62951;SDS011;52163;52.212;-1.002;2023-02-15T08:05:38;79.80;;;37.10;;
62951;SDS011;52163;52.212;-1.002;2023-02-15T08:08:05;74.10;;;36.60;;
62951;SDS011;52163;52.212;-1.002;2023-02-15T08:10:32;58.30;;;31.40;;
62951;SDS011;52163;52.212;-1.002;2023-02-15T08:13:16;54.20;;;30.70;;
62951;SDS011;52163;52.212;-1.002;2023-02-15T08:15:49;51.60;;;28.30;;
62951;SDS011;52163;52.212;-1.002;2023-02-15T08:18:14;49.30;;;28.60;;
62951;SDS011;52163;52.212;-1.002;2023-02-15T08:20:40;55.00;;;28.80;;
62951;SDS011;52163;52.212;-1.002;2023-02-15T08:23:05;64.50;;;34.30;;
62951;SDS011;52163;52.212;-1.002;2023-02-15T08:25:31;64.20;;;32.50;;
62951;SDS011;52163;52.212;-1.002;2023-02-15T08:27:56;62.30;;;31.60;;
62951;SDS011;52163;52.212;-1.002;2023-02-15T08:30:21;52.20;;;29.20;;
62951;SDS011;52163;52.212;-1.002;2023-02-15T08:32:47;46.70;;;28.30;;
62951;SDS011;52163;52.212;-1.002;2023-02-15T08:35:13;48.00;;;28.70;;
62951;SDS011;52163;52.212;-1.002;2023-02-15T08:37:38;52.40;;;30.10;;
62951;SDS011;52163;52.212;-1.002;2023-02-15T08:40:04;62.00;;;30.70;;
62951;SDS011;52163;52.212;-1.002;2023-02-15T08:42:32;64.70;;;33.60;;
62951;SDS011;52163;52.212;-1.002;2023-02-15T08:44:58;65.30;;;33.30;;
62951;SDS011;52163;52.212;-1.002;2023-02-15T08:47:23;62.70;;;33.80;;
62951;SDS011;52163;52.212;-1.002;2023-02-15T08:49:48;51.50;;;28.10;;
62951;SDS011;52163;52.212;-1.002;2023-02-15T08:52:14;44.80;;;26.50;;
62951;SDS011;52163;52.212;-1.002;2023-02-15T08:54:39;53.20;;;30.50;;
62951;SDS011;52163;52.212;-1.002;2023-02-15T08:57:05;51.50;;;28.20;;
62951;SDS011;52163;52.212;-1.002;2023-02-15T08:59:31;52.60;;;28.20;;
62951;SDS011;52163;52.212;-1.002;2023-02-15T09:01:57;69.20;;;35.00;;
62951;SDS011;52163;52.212;-1.002;2023-02-15T09:04:22;66.40;;;33.40;;
62951;SDS011;52163;52.212;-1.002;2023-02-15T09:06:48;62.50;;;33.20;;
62951;SDS011;52163;52.212;-1.002;2023-02-15T09:09:15;48.60;;;27.90;;
62951;SDS011;52163;52.212;-1.002;2023-02-15T09:11:42;45.40;;;25.80;;
62951;SDS011;52163;52.212;-1.002;2023-02-15T09:14:11;48.00;;;27.90;;
62951;SDS011;52163;52.212;-1.002;2023-02-15T09:16:38;60.10;;;28.90;;
62951;SDS011;52163;52.212;-1.002;2023-02-15T09:19:05;67.40;;;33.60;;
62951;SDS011;52163;52.212;-1.002;2023-02-15T09:21:32;64.50;;;33.90;;
62951;SDS011;52163;52.212;-1.002;2023-02-15T09:23:59;57.40;;;33.40;;
62951;SDS011;52163;52.212;-1.002;2023-02-15T09:26:28;52.20;;;29.60;;
62951;SDS011;52163;52.212;-1.002;2023-02-15T09:28:55;45.40;;;26.90;;
62951;SDS011;52163;52.212;-1.002;2023-02-15T09:31:27;48.10;;;30.40;;
62951;SDS011;52163;52.212;-1.002;2023-02-15T09:33:54;44.40;;;26.60;;
62951;SDS011;52163;52.212;-1.002;2023-02-15T09:36:21;63.50;;;31.60;;
62951;SDS011;52163;52.212;-1.002;2023-02-15T09:38:58;73.50;;;35.70;;
62951;SDS011;52163;52.212;-1.002;2023-02-15T09:47:25;48.80;;;27.60;;
62951;SDS011;52163;52.212;-1.002;2023-02-15T10:06:07;37.00;;;23.20;;
62951;SDS011;52163;52.212;-1.002;2023-02-15T10:11:20;44.30;;;26.90;;
62951;SDS011;52163;52.212;-1.002;2023-02-15T10:25:40;37.10;;;23.50;;
62951;SDS011;52163;52.212;-1.002;2023-02-15T10:33:47;44.10;;;23.90;;
62951;SDS011;52163;52.212;-1.002;2023-02-15T10:50:25;38.00;;;23.90;;
62951;SDS011;52163;52.212;-1.002;2023-02-15T11:07:15;31.70;;;20.10;;
62951;SDS011;52163;52.212;-1.002;2023-02-15T11:09:46;32.40;;;21.10;;
62951;SDS011;52163;52.212;-1.002;2023-02-15T11:12:27;38.20;;;21.70;;
62951;SDS011;52163;52.212;-1.002;2023-02-15T11:15:11;34.90;;;21.70;;
62951;SDS011;52163;52.212;-1.002;2023-02-15T11:18:01;35.30;;;21.50;;
62951;SDS011;52163;52.212;-1.002;2023-02-15T11:23:01;33.10;;;21.60;;
62951;SDS011;52163;52.212;-1.002;2023-02-15T11:25:31;33.60;;;21.20;;
62951;SDS011;52163;52.212;-1.002;2023-02-15T11:28:00;35.20;;;22.90;;
62951;SDS011;52163;52.212;-1.002;2023-02-15T11:30:41;31.90;;;20.10;;
62951;SDS011;52163;52.212;-1.002;2023-02-15T11:33:20;36.00;;;20.70;;
62951;SDS011;52163;52.212;-1.002;2023-02-15T11:38:29;32.60;;;21.40;;
62951;SDS011;52163;52.212;-1.002;2023-02-15T11:41:05;30.90;;;20.40;;
62951;SDS011;52163;52.212;-1.002;2023-02-15T11:43:43;31.50;;;21.00;;
62951;SDS011;52163;52.212;-1.002;2023-02-15T11:46:15;34.50;;;20.10;;
62951;SDS011;52163;52.212;-1.002;2023-02-15T11:48:40;33.10;;;21.50;;
62951;SDS011;52163;52.212;-1.002;2023-02-15T11:51:17;32.30;;;21.10;;
62951;SDS011;52163;52.212;-1.002;2023-02-15T11:53:45;33.70;;;21.30;;
62951;SDS011;52163;52.212;-1.002;2023-02-15T11:58:53;29.40;;;17.70;;
62951;SDS011;52163;52.212;-1.002;2023-02-15T12:01:45;30.10;;;19.20;;
62951;SDS011;52163;52.212;-1.002;2023-02-15T12:04:32;30.60;;;17.80;;
62951;SDS011;52163;52.212;-1.002;2023-02-15T12:07:09;34.00;;;20.10;;
62951;SDS011;52163;52.212;-1.002;2023-02-15T12:12:33;33.70;;;19.70;;
62951;SDS011;52163;52.212;-1.002;2023-02-15T12:15:01;28.40;;;18.90;;
62951;SDS011;52163;52.212;-1.002;2023-02-15T12:17:31;29.00;;;18.10;;
62951;SDS011;52163;52.212;-1.002;2023-02-15T12:22:46;26.40;;;16.70;;
62951;SDS011;52163;52.212;-1.002;2023-02-15T12:27:50;26.90;;;17.40;;
62951;SDS011;52163;52.212;-1.002;2023-02-15T12:32:57;28.10;;;17.80;;
62951;SDS011;52163;52.212;-1.002;2023-02-15T12:35:28;25.90;;;17.60;;
62951;SDS011;52163;52.212;-1.002;2023-02-15T12:37:57;25.60;;;17.70;;
62951;SDS011;52163;52.212;-1.002;2023-02-15T12:40:28;29.70;;;18.20;;
62951;SDS011;52163;52.212;-1.002;2023-02-15T12:42:55;25.80;;;16.20;;
62951;SDS011;52163;52.212;-1.002;2023-02-15T12:45:23;36.30;;;19.00;;
62951;SDS011;52163;52.212;-1.002;2023-02-15T12:50:33;24.90;;;16.20;;
62951;SDS011;52163;52.212;-1.002;2023-02-15T12:53:06;28.30;;;18.60;;
62951;SDS011;52163;52.212;-1.002;2023-02-15T12:55:41;28.60;;;17.60;;
62951;SDS011;52163;52.212;-1.002;2023-02-15T12:58:16;28.00;;;17.30;;
62951;SDS011;52163;52.212;-1.002;2023-02-15T13:00:44;24.80;;;16.20;;
62951;SDS011;52163;52.212;-1.002;2023-02-15T13:03:18;24.60;;;15.50;;
62951;SDS011;52163;52.212;-1.002;2023-02-15T13:05:46;28.10;;;17.30;;
62951;SDS011;52163;52.212;-1.002;2023-02-15T13:08:19;21.70;;;14.90;;
62951;SDS011;52163;52.212;-1.002;2023-02-15T13:11:06;25.90;;;15.90;;
62951;SDS011;52163;52.212;-1.002;2023-02-15T13:16:31;24.70;;;16.20;;
62951;SDS011;52163;52.212;-1.002;2023-02-15T13:18:57;24.20;;;15.40;;
62951;SDS011;52163;52.212;-1.002;2023-02-15T13:21:31;22.30;;;13.90;;
62951;SDS011;52163;52.212;-1.002;2023-02-15T13:24:05;18.80;;;12.70;;
62951;SDS011;52163;52.212;-1.002;2023-02-15T13:26:38;24.90;;;15.40;;
62951;SDS011;52163;52.212;-1.002;2023-02-15T13:29:12;22.70;;;13.10;;
62951;SDS011;52163;52.212;-1.002;2023-02-15T13:31:56;23.40;;;14.60;;
62951;SDS011;52163;52.212;-1.002;2023-02-15T13:39:47;18.60;;;11.10;;
62951;SDS011;52163;52.212;-1.002;2023-02-15T13:47:43;18.40;;;10.90;;
62951;SDS011;52163;52.212;-1.002;2023-02-15T13:53:13;18.70;;;10.20;;
62951;SDS011;52163;52.212;-1.002;2023-02-15T13:55:36;14.20;;;8.90;;
62951;SDS011;52163;52.212;-1.002;2023-02-15T13:58:25;16.20;;;9.80;;
62951;SDS011;52163;52.212;-1.002;2023-02-15T14:01:05;16.80;;;9.80;;
62951;SDS011;52163;52.212;-1.002;2023-02-15T14:14:23;14.00;;;7.20;;
62951;SDS011;52163;52.212;-1.002;2023-02-15T14:20:08;19.10;;;10.00;;
62951;SDS011;52163;52.212;-1.002;2023-02-15T14:26:40;18.70;;;9.50;;
62951;SDS011;52163;52.212;-1.002;2023-02-15T14:31:46;16.40;;;7.80;;
62951;SDS011;52163;52.212;-1.002;2023-02-15T14:34:24;12.30;;;7.50;;
62951;SDS011;52163;52.212;-1.002;2023-02-15T14:36:55;14.30;;;7.10;;
62951;SDS011;52163;52.212;-1.002;2023-02-15T14:39:25;12.80;;;8.30;;
62951;SDS011;52163;52.212;-1.002;2023-02-15T14:42:24;11.70;;;8.00;;
62951;SDS011;52163;52.212;-1.002;2023-02-15T14:45:03;12.10;;;7.30;;
62951;SDS011;52163;52.212;-1.002;2023-02-15T14:47:40;13.40;;;8.40;;
62951;SDS011;52163;52.212;-1.002;2023-02-15T14:58:54;15.70;;;7.70;;
62951;SDS011;52163;52.212;-1.002;2023-02-15T15:01:28;17.30;;;8.50;;
62951;SDS011;52163;52.212;-1.002;2023-02-15T15:03:57;14.50;;;8.80;;
62951;SDS011;52163;52.212;-1.002;2023-02-15T15:06:27;13.40;;;7.70;;
62951;SDS011;52163;52.212;-1.002;2023-02-15T15:08:58;14.70;;;8.10;;
62951;SDS011;52163;52.212;-1.002;2023-02-15T15:14:08;13.50;;;8.60;;
62951;SDS011;52163;52.212;-1.002;2023-02-15T15:19:03;11.40;;;7.60;;
62951;SDS011;52163;52.212;-1.002;2023-02-15T15:24:54;14.20;;;8.80;;
62951;SDS011;52163;52.212;-1.002;2023-02-15T15:35:17;13.30;;;7.90;;
62951;SDS011;52163;52.212;-1.002;2023-02-15T15:43:38;10.70;;;6.00;;
62951;SDS011;52163;52.212;-1.002;2023-02-15T15:46:13;15.10;;;7.30;;
62951;SDS011;52163;52.212;-1.002;2023-02-15T15:49:06;12.70;;;7.10;;
62951;SDS011;52163;52.212;-1.002;2023-02-15T15:51:37;11.20;;;6.20;;
62951;SDS011;52163;52.212;-1.002;2023-02-15T15:54:06;20.70;;;6.70;;
62951;SDS011;52163;52.212;-1.002;2023-02-15T15:56:32;11.20;;;6.20;;
62951;SDS011;52163;52.212;-1.002;2023-02-15T15:59:13;12.30;;;6.80;;
62951;SDS011;52163;52.212;-1.002;2023-02-15T16:01:45;12.20;;;7.30;;
62951;SDS011;52163;52.212;-1.002;2023-02-15T16:04:12;11.90;;;6.50;;
62951;SDS011;52163;52.212;-1.002;2023-02-15T16:06:39;12.40;;;6.50;;
62951;SDS011;52163;52.212;-1.002;2023-02-15T16:09:12;15.20;;;6.30;;
62951;SDS011;52163;52.212;-1.002;2023-02-15T16:14:10;16.20;;;7.60;;
62951;SDS011;52163;52.212;-1.002;2023-02-15T16:16:38;9.90;;;6.50;;
62951;SDS011;52163;52.212;-1.002;2023-02-15T16:19:04;10.00;;;6.10;;
62951;SDS011;52163;52.212;-1.002;2023-02-15T16:21:34;11.10;;;6.00;;
62951;SDS011;52163;52.212;-1.002;2023-02-15T16:24:12;15.90;;;6.50;;
62951;SDS011;52163;52.212;-1.002;2023-02-15T16:33:15;12.00;;;6.90;;
62951;SDS011;52163;52.212;-1.002;2023-02-15T16:35:52;11.20;;;6.90;;
62951;SDS011;52163;52.212;-1.002;2023-02-15T16:41:08;14.20;;;7.80;;
62951;SDS011;52163;52.212;-1.002;2023-02-15T16:43:36;15.20;;;6.80;;
62951;SDS011;52163;52.212;-1.002;2023-02-15T16:46:04;14.40;;;7.30;;
62951;SDS011;52163;52.212;-1.002;2023-02-15T16:48:32;11.90;;;7.00;;
62951;SDS011;52163;52.212;-1.002;2023-02-15T16:51:00;16.60;;;8.90;;
62951;SDS011;52163;52.212;-1.002;2023-02-15T16:53:26;16.70;;;7.80;;
62951;SDS011;52163;52.212;-1.002;2023-02-15T16:55:54;15.60;;;7.40;;
62951;SDS011;52163;52.212;-1.002;2023-02-15T17:01:08;13.30;;;7.60;;
62951;SDS011;52163;52.212;-1.002;2023-02-15T17:03:36;12.80;;;7.50;;
62951;SDS011;52163;52.212;-1.002;2023-02-15T17:06:03;12.90;;;7.70;;
62951;SDS011;52163;52.212;-1.002;2023-02-15T17:11:14;12.50;;;6.80;;
62951;SDS011;52163;52.212;-1.002;2023-02-15T17:14:11;12.30;;;7.60;;
62951;SDS011;52163;52.212;-1.002;2023-02-15T17:16:40;17.10;;;8.60;;
62951;SDS011;52163;52.212;-1.002;2023-02-15T17:21:51;15.60;;;9.10;;
62951;SDS011;52163;52.212;-1.002;2023-02-15T17:24:21;15.90;;;8.60;;
62951;SDS011;52163;52.212;-1.002;2023-02-15T17:26:56;17.10;;;8.70;;
62951;SDS011;52163;52.212;-1.002;2023-02-15T17:32:05;15.70;;;8.70;;
62951;SDS011;52163;52.212;-1.002;2023-02-15T17:34:45;17.00;;;9.10;;
62951;SDS011;52163;52.212;-1.002;2023-02-15T17:37:28;19.90;;;11.00;;
62951;SDS011;52163;52.212;-1.002;2023-02-15T17:39:54;18.40;;;11.10;;
62951;SDS011;52163;52.212;-1.002;2023-02-15T17:42:20;21.60;;;12.50;;
62951;SDS011;52163;52.212;-1.002;2023-02-15T17:44:45;14.60;;;9.80;;
62951;SDS011;52163;52.212;-1.002;2023-02-15T17:47:20;21.00;;;10.60;;
62951;SDS011;52163;52.212;-1.002;2023-02-15T17:49:49;15.70;;;9.50;;
62951;SDS011;52163;52.212;-1.002;2023-02-15T17:52:15;18.40;;;11.00;;
62951;SDS011;52163;52.212;-1.002;2023-02-15T17:54:42;14.70;;;9.60;;
62951;SDS011;52163;52.212;-1.002;2023-02-15T17:57:28;24.10;;;15.00;;